Time;durP1;ratioP1;P1;durP2;ratioP2;P2;SDS_P1;SDS_P2;PMS_P1;PMS_P2;Temp;Humidity;BMP_temperature;BMP_pressure;BME280_temperature;BME280_humidity;BME280_pressure;Samples;Min_cycle;Max_cycle;Signal;HPM_P1;HPM_P2
2022/01/04 00:00:15;;;;;;;86.40;44.80;;;;;;;12.97;100.00;99068.94;4816590;29;20104;-68
2022/01/04 00:03:10;;;;;;;80.07;45.03;;;;;;;13.07;100.00;99067.75;4851603;29;20093;-67
2022/01/04 00:05:59;;;;;;;90.50;45.90;;;;;;;13.03;100.00;99066.16;4852803;29;20058;-68
2022/01/04 00:08:48;;;;;;;88.65;47.38;;;;;;;13.01;100.00;99075.69;4850045;29;20050;-67
2022/01/04 00:14:34;;;;;;;84.07;45.10;;;;;;;13.06;100.00;99054.84;4823419;29;20650;-67
2022/01/04 00:17:16;;;;;;;82.32;47.25;;;;;;;13.06;100.00;99042.78;4840169;29;20061;-68
2022/01/04 00:20:05;;;;;;;88.40;46.85;;;;;;;12.98;100.00;99044.78;4853214;29;20083;-67
2022/01/04 00:22:49;;;;;;;79.30;45.33;;;;;;;12.97;100.00;99038.75;4831216;29;20042;-68
2022/01/04 00:25:37;;;;;;;87.60;46.03;;;;;;;13.14;100.00;99042.53;4834499;29;20065;-68
2022/01/04 00:28:19;;;;;;;89.38;48.92;;;;;;;13.16;100.00;99048.50;4841601;29;20064;-68
2022/01/04 00:31:08;;;;;;;87.22;45.85;;;;;;;13.25;100.00;99046.44;4849558;29;20089;-68
2022/01/04 00:33:57;;;;;;;79.28;46.63;;;;;;;13.25;100.00;99036.06;4839737;29;20680;-67
2022/01/04 00:36:46;;;;;;;81.18;46.97;;;;;;;13.25;100.00;99043.84;4843300;29;20054;-68
2022/01/04 00:39:28;;;;;;;82.30;47.22;;;;;;;13.27;100.00;99047.22;4833144;29;20065;-68
2022/01/04 00:42:17;;;;;;;93.82;50.38;;;;;;;13.16;100.00;99049.34;4841914;29;20154;-68
2022/01/04 00:44:59;;;;;;;86.25;49.28;;;;;;;13.15;100.00;99047.66;4845808;29;20050;-68
2022/01/04 00:50:38;;;;;;;82.55;48.15;;;;;;;13.00;100.00;99053.34;4846974;29;20054;-67
2022/01/04 00:53:27;;;;;;;91.47;48.90;;;;;;;12.87;100.00;99057.22;4844053;29;20046;-68
2022/01/04 00:56:15;;;;;;;83.30;47.72;;;;;;;12.86;100.00;99071.88;4851553;29;20060;-67
2022/01/04 00:59:03;;;;;;;85.70;50.05;;;;;;;12.95;100.00;99081.06;4846140;29;20542;-67
2022/01/04 01:01:46;;;;;;;90.53;51.85;;;;;;;13.17;100.00;99096.78;4845039;29;20062;-68
2022/01/04 01:04:41;;;;;;;83.60;50.38;;;;;;;13.25;100.00;99111.09;4831597;29;20049;-67
2022/01/04 01:07:17;;;;;;;97.75;51.45;;;;;;;13.05;100.00;99121.25;4843835;29;20042;-67
2022/01/04 01:13:01;;;;;;;96.82;50.10;;;;;;;12.80;100.00;99099.69;4843270;29;20042;-67
2022/01/04 01:15:45;;;;;;;91.13;49.90;;;;;;;12.69;100.00;99091.44;4846993;29;20057;-68
2022/01/04 01:18:35;;;;;;;95.63;50.38;;;;;;;12.95;100.00;99109.50;4852532;29;20069;-68
2022/01/04 01:21:17;;;;;;;93.78;51.90;;;;;;;12.95;100.00;99112.09;4853567;29;20078;-67
2022/01/04 01:24:06;;;;;;;91.13;52.08;;;;;;;12.84;100.00;99109.03;4853139;29;20074;-65
2022/01/04 01:26:54;;;;;;;95.13;51.20;;;;;;;12.83;100.00;99117.69;4846576;29;20537;-68
2022/01/04 01:29:42;;;;;;;92.78;52.00;;;;;;;13.03;100.00;99123.03;4842751;29;20054;-68
2022/01/04 01:32:25;;;;;;;97.93;52.27;;;;;;;12.84;100.00;99135.75;4841703;29;20053;-67
2022/01/04 01:35:13;;;;;;;97.35;53.60;;;;;;;12.83;100.00;99128.03;4843279;29;20060;-68
2022/01/04 01:38:02;;;;;;;97.20;52.38;;;;;;;12.93;100.00;99139.78;4848590;29;20049;-68
2022/01/04 01:40:45;;;;;;;94.05;50.22;;;;;;;12.91;100.00;99147.56;4843345;29;20054;-65
2022/01/04 01:43:34;;;;;;;92.30;51.83;;;;;;;13.01;100.00;99148.94;4846752;29;20148;-68
2022/01/04 01:46:16;;;;;;;92.90;51.75;;;;;;;13.09;100.00;99151.28;4843720;29;20509;-68
2022/01/04 01:49:05;;;;;;;91.45;52.33;;;;;;;13.06;100.00;99147.97;4840387;29;20201;-68
2022/01/04 01:51:53;;;;;;;92.68;50.85;;;;;;;13.09;100.00;99153.88;4850874;29;20053;-68
2022/01/04 01:54:42;;;;;;;97.00;52.78;;;;;;;13.24;100.00;99166.38;4828341;29;20133;-68
2022/01/04 01:57:24;;;;;;;91.53;52.45;;;;;;;13.30;100.00;99166.16;4842267;29;20376;-67
2022/01/04 02:00:15;;;;;;;93.35;54.00;;;;;;;13.41;100.00;99181.31;4844902;29;20061;-68
2022/01/04 02:02:57;;;;;;;96.72;53.90;;;;;;;13.46;100.00;99184.59;4848530;29;20154;-67
2022/01/04 02:05:47;;;;;;;98.03;54.65;;;;;;;13.33;100.00;99193.66;4825431;29;20081;-66
2022/01/04 02:08:29;;;;;;;97.38;54.33;;;;;;;13.16;100.00;99199.41;4825253;29;20148;-67
2022/01/04 02:11:19;;;;;;;97.57;54.00;;;;;;;13.40;100.00;99198.59;4826969;29;20129;-67
2022/01/04 02:14:06;;;;;;;108.88;55.47;;;;;;;13.34;100.00;99209.13;4828520;29;20110;-68
2022/01/04 02:16:55;;;;;;;103.03;54.95;;;;;;;13.52;100.00;99218.03;4825541;29;20379;-67
2022/01/04 02:19:42;;;;;;;96.80;56.55;;;;;;;13.60;100.00;99234.16;4825952;29;20056;-68
2022/01/04 02:22:32;;;;;;;106.43;57.13;;;;;;;13.48;100.00;99244.09;4826681;29;20639;-68
2022/01/04 02:25:20;;;;;;;98.00;55.58;;;;;;;13.57;100.00;99254.16;4827130;29;20418;-67
2022/01/04 02:28:08;;;;;;;103.18;56.85;;;;;;;13.59;100.00;99260.09;4828194;29;20050;-67
2022/01/04 02:30:51;;;;;;;102.45;57.30;;;;;;;13.62;100.00;99260.00;4823665;29;20053;-67
2022/01/04 02:33:40;;;;;;;103.95;53.22;;;;;;;13.67;100.00;99271.03;4828562;29;20555;-67
2022/01/04 02:36:22;;;;;;;94.32;54.63;;;;;;;13.60;100.00;99260.06;4827052;29;20050;-67
2022/01/04 02:39:11;;;;;;;100.43;53.65;;;;;;;13.55;100.00;99253.34;4827889;29;20042;-67
2022/01/04 02:41:59;;;;;;;89.47;52.55;;;;;;;13.59;100.00;99257.50;4826494;29;20046;-67
2022/01/04 02:44:43;;;;;;;92.73;52.33;;;;;;;13.62;100.00;99252.25;4810243;29;20047;-67
2022/01/04 02:47:32;;;;;;;95.47;54.72;;;;;;;13.77;100.00;99260.34;4820329;29;20114;-68
2022/01/04 02:50:14;;;;;;;104.10;54.75;;;;;;;13.90;100.00;99265.94;4814791;29;20134;-68
2022/01/04 02:53:03;;;;;;;98.15;55.20;;;;;;;13.91;100.00;99269.38;4816626;29;20061;-68
2022/01/04 02:55:48;;;;;;;96.90;54.58;;;;;;;13.90;100.00;99265.94;4826969;29;20061;-68
2022/01/04 02:58:36;;;;;;;101.05;56.67;;;;;;;13.82;100.00;99257.59;4807945;29;20340;-67
2022/01/04 03:01:18;;;;;;;104.97;57.70;;;;;;;13.70;100.00;99250.25;4829415;29;20050;-68
2022/01/04 03:04:14;;;;;;;99.85;57.45;;;;;;;13.90;100.00;99247.81;4837881;29;20076;-68
2022/01/04 03:07:03;;;;;;;87.07;54.42;;;;;;;13.98;100.00;99263.09;4844541;29;20046;-67
2022/01/04 03:09:53;;;;;;;107.93;57.38;;;;;;;13.95;100.00;99270.97;4841835;29;20052;-67
2022/01/04 03:12:43;;;;;;;104.82;56.28;;;;;;;14.03;100.00;99277.59;4844941;29;20085;-68
2022/01/04 03:15:31;;;;;;;99.22;58.45;;;;;;;14.09;100.00;99272.19;4842105;29;20054;-68
2022/01/04 03:18:20;;;;;;;103.45;59.30;;;;;;;13.77;100.00;99251.72;4845604;29;20110;-66
2022/01/04 03:21:09;;;;;;;109.18;58.38;;;;;;;13.80;100.00;99243.88;4852267;29;20053;-65
2022/01/04 03:23:58;;;;;;;101.38;58.47;;;;;;;13.85;100.00;99252.31;4856943;29;20057;-67
2022/01/04 03:26:39;;;;;;;97.18;59.55;;;;;;;13.74;100.00;99249.22;4851503;29;20050;-67
2022/01/04 03:29:34;;;;;;;99.20;61.58;;;;;;;13.88;100.00;99241.00;4848253;29;20058;-67
2022/01/04 03:32:10;;;;;;;107.35;60.88;;;;;;;14.00;100.00;99236.25;4847817;29;20060;-67
2022/01/04 03:34:59;;;;;;;101.53;58.75;;;;;;;14.14;100.00;99239.19;4829222;29;20072;-67
2022/01/04 03:37:41;;;;;;;103.32;60.75;;;;;;;14.17;100.00;99248.59;4851528;29;20129;-67
2022/01/04 03:40:30;;;;;;;109.88;62.13;;;;;;;14.08;100.00;99249.78;4846519;29;20114;-67
2022/01/04 03:43:20;;;;;;;117.30;70.65;;;;;;;14.14;100.00;99265.09;4842795;29;20117;-67
2022/01/04 03:46:02;;;;;;;112.45;67.60;;;;;;;14.32;100.00;99267.94;4843160;29;20792;-67
2022/01/04 03:48:50;;;;;;;104.65;62.67;;;;;;;14.10;100.00;99273.03;4844262;29;20053;-67
2022/01/04 03:51:32;;;;;;;106.80;63.03;;;;;;;13.94;100.00;99272.72;4849850;29;20053;-67
2022/01/04 03:54:22;;;;;;;109.10;63.42;;;;;;;13.71;100.00;99264.88;4852408;29;20148;-66
2022/01/04 03:57:04;;;;;;;111.60;61.95;;;;;;;13.82;100.00;99273.13;4842941;29;20496;-67
2022/01/04 03:59:53;;;;;;;108.00;60.25;;;;;;;13.97;100.00;99267.41;4842064;29;20050;-67
2022/01/04 04:02:44;;;;;;;111.22;62.17;;;;;;;14.13;100.00;99268.56;4847166;29;20160;-66
2022/01/04 04:05:39;;;;;;;108.07;62.55;;;;;;;14.18;100.00;99266.69;4841037;29;20522;-67
2022/01/04 04:08:16;;;;;;;104.13;62.55;;;;;;;14.11;100.00;99270.41;4831060;29;20860;-67
2022/01/04 04:11:10;;;;;;;110.20;63.05;;;;;;;13.93;100.00;99277.94;4846198;29;20407;-67
2022/01/04 04:13:46;;;;;;;123.15;65.03;;;;;;;14.28;100.00;99293.13;4840380;29;20057;-67
2022/01/04 04:16:41;;;;;;;120.00;64.88;;;;;;;14.45;100.00;99300.31;4844064;29;20124;-67
2022/01/04 04:19:16;;;;;;;124.97;67.47;;;;;;;14.43;100.00;99309.91;4820578;29;20053;-69
2022/01/04 04:22:05;;;;;;;119.53;69.00;;;;;;;14.55;100.00;99299.09;4846153;29;20053;-66
2022/01/04 04:24:47;;;;;;;108.65;65.82;;;;;;;14.57;100.00;99302.50;4849632;29;20827;-67
2022/01/04 04:27:36;;;;;;;118.80;66.85;;;;;;;14.60;100.00;99299.78;4842556;29;20054;-67
2022/01/04 04:30:24;;;;;;;118.35;69.03;;;;;;;14.60;100.00;99293.75;4824340;29;20046;-68
2022/01/04 04:33:13;;;;;;;120.40;65.80;;;;;;;14.67;100.00;99300.41;4844981;29;20474;-68
2022/01/04 04:35:55;;;;;;;110.88;66.07;;;;;;;14.50;100.00;99301.03;4840899;29;20843;-68
2022/01/04 04:38:43;;;;;;;116.45;65.32;;;;;;;14.32;100.00;99296.44;4844135;29;20069;-68
2022/01/04 04:41:25;;;;;;;110.97;65.93;;;;;;;14.20;100.00;99296.91;4843666;29;20053;-68
2022/01/04 04:44:15;;;;;;;112.05;65.00;;;;;;;14.18;100.00;99302.97;4840521;29;20526;-68
2022/01/04 04:47:03;;;;;;;110.32;63.88;;;;;;;14.47;100.00;99316.66;4843988;29;20050;-67
2022/01/04 04:49:45;;;;;;;112.03;65.82;;;;;;;14.51;100.00;99311.34;4844280;29;20058;-67
2022/01/04 04:52:34;;;;;;;115.18;65.85;;;;;;;14.51;100.00;99306.16;4837711;29;20361;-67
2022/01/04 04:55:18;;;;;;;117.03;67.10;;;;;;;14.49;100.00;99312.28;4822019;29;20078;-68
2022/01/04 04:58:06;;;;;;;120.97;68.00;;;;;;;14.48;100.00;99308.84;4838491;29;20113;-67
2022/01/04 05:00:48;;;;;;;120.05;69.32;;;;;;;14.51;100.00;99307.91;4835610;29;20069;-67
2022/01/04 05:03:53;;;;;;;118.85;69.20;;;;;;;14.67;100.00;99306.44;4825771;29;20169;-67
2022/01/04 05:06:43;;;;;;;120.18;69.72;;;;;;;14.59;100.00;99299.84;4841678;29;20076;-69
2022/01/04 05:09:33;;;;;;;121.80;70.75;;;;;;;14.76;100.00;99295.75;4846213;29;20084;-66
2022/01/04 05:12:19;;;;;;;116.57;69.65;;;;;;;14.72;100.00;99306.25;4812135;29;20153;-67
2022/01/04 05:15:17;;;;;;;127.13;74.88;;;;;;;14.66;100.00;99304.75;4812160;29;20053;-66
2022/01/04 05:21:38;;;;;;;127.80;79.75;;;;;;;14.97;100.00;99313.97;4811034;29;20453;-69
2022/01/04 05:24:14;;;;;;;120.70;78.28;;;;;;;15.08;100.00;99311.84;4816870;29;20057;-69
2022/01/04 05:27:10;;;;;;;129.20;77.50;;;;;;;14.98;100.00;99315.69;4824875;29;20513;-69
2022/01/04 05:29:45;;;;;;;126.60;75.90;;;;;;;15.12;100.00;99319.44;4826187;29;20478;-69
2022/01/04 05:32:41;;;;;;;121.35;74.90;;;;;;;15.03;100.00;99312.00;4818548;29;20445;-69
2022/01/04 05:35:19;;;;;;;125.82;75.53;;;;;;;14.97;100.00;99307.03;4822179;29;20046;-69
2022/01/04 05:38:08;;;;;;;120.55;77.30;;;;;;;15.10;100.00;99304.81;4817441;29;20667;-68
2022/01/04 05:40:50;;;;;;;136.73;80.35;;;;;;;15.07;100.00;99307.56;4819316;29;20094;-69
2022/01/04 05:43:41;;;;;;;128.73;77.78;;;;;;;15.08;100.00;99306.66;4820791;29;20486;-69
2022/01/04 05:46:23;;;;;;;148.05;77.82;;;;;;;15.16;100.00;99302.88;4813875;29;20066;-69
2022/01/04 05:49:19;;;;;;;163.18;79.32;;;;;;;15.22;100.00;99309.56;4810065;29;20054;-66
2022/01/04 05:51:54;;;;;;;131.90;75.85;;;;;;;15.36;100.00;99306.41;4815318;29;20054;-66
2022/01/04 05:54:51;;;;;;;108.38;64.10;;;;;;;15.21;100.00;99302.66;4822016;29;20062;-67
2022/01/04 05:57:26;;;;;;;109.50;63.88;;;;;;;15.29;100.00;99311.84;4823882;29;20060;-67
2022/01/04 06:00:15;;;;;;;112.40;65.78;;;;;;;15.47;100.00;99307.69;4827146;29;20121;-67
2022/01/04 06:03:00;;;;;;;114.85;65.70;;;;;;;15.60;100.00;99306.31;4821425;29;20109;-67
2022/01/04 06:05:49;;;;;;;106.75;64.40;;;;;;;15.66;100.00;99306.06;4825858;29;20567;-68
2022/01/04 06:08:38;;;;;;;102.13;63.78;;;;;;;15.44;100.00;99300.00;4815912;29;20516;-71
2022/01/04 06:11:58;;;;;;;112.85;63.78;;;;;;;15.53;100.00;99310.06;4826462;29;20053;-70
2022/01/04 06:14:52;;;;;;;112.28;63.40;;;;;;;15.75;100.00;99304.00;4821075;29;20478;-68
2022/01/04 06:17:49;;;;;;;98.45;58.78;;;;;;;15.59;100.00;99296.84;4797026;29;20054;-69
2022/01/04 06:20:43;;;;;;;105.10;59.22;;;;;;;15.80;100.00;99291.69;4828867;29;20137;-72
2022/01/04 06:23:31;;;;;;;101.35;56.70;;;;;;;15.72;100.00;99283.34;4832455;29;20068;-69
2022/01/04 06:26:16;;;;;;;83.03;48.30;;;;;;;15.50;100.00;99273.78;4835935;29;20052;-67
2022/01/04 06:29:08;;;;;;;79.18;45.80;;;;;;;15.73;100.00;99264.25;4825052;29;20058;-69
2022/01/04 06:31:51;;;;;;;79.18;44.47;;;;;;;15.82;100.00;99256.06;4836601;29;20061;-70
2022/01/04 06:34:41;;;;;;;78.15;47.45;;;;;;;16.17;100.00;99242.41;4824062;29;20518;-69
2022/01/04 06:37:35;;;;;;;74.75;46.20;;;;;;;16.21;100.00;99237.91;4817910;29;20077;-69
2022/01/04 06:40:31;;;;;;;73.38;44.75;;;;;;;16.19;100.00;99240.59;4839685;29;20513;-70
2022/01/04 06:43:06;;;;;;;75.38;42.63;;;;;;;16.18;100.00;99240.66;4833509;29;20393;-68
2022/01/04 06:45:55;;;;;;;68.40;44.47;;;;;;;16.24;100.00;99240.38;4807756;29;20132;-69
2022/01/04 06:48:43;;;;;;;64.18;39.72;;;;;;;16.12;100.00;99246.13;4850262;29;20061;-69
2022/01/04 06:51:32;;;;;;;71.72;40.70;;;;;;;16.26;100.00;99235.97;4822541;29;20097;-69
2022/01/04 06:54:15;;;;;;;77.45;39.88;;;;;;;16.35;100.00;99225.16;4852919;29;20117;-69
2022/01/04 06:57:05;;;;;;;63.97;39.13;;;;;;;16.05;100.00;99228.19;4841025;29;20516;-69
2022/01/04 06:59:47;;;;;;;71.75;39.05;;;;;;;16.07;100.00;99215.97;4839230;29;20132;-69
2022/01/04 07:02:36;;;;;;;66.88;37.50;;;;;;;16.03;100.00;99190.19;4840523;29;20061;-70
2022/01/04 07:05:18;;;;;;;62.70;34.53;;;;;;;16.11;100.00;99188.09;4831908;29;20042;-69
2022/01/04 07:08:15;;;;;;;57.75;34.35;;;;;;;16.17;100.00;99193.03;4835992;29;20095;-69
2022/01/04 07:10:50;;;;;;;59.97;33.38;;;;;;;16.31;100.00;99206.25;4848854;29;20055;-68
2022/01/04 07:13:39;;;;;;;58.30;35.13;;;;;;;16.20;100.00;99202.47;4845774;29;20069;-69
2022/01/04 07:16:20;;;;;;;59.92;33.17;;;;;;;16.28;100.00;99193.38;4826182;29;20067;-70
2022/01/04 07:19:15;;;;;;;59.80;34.63;;;;;;;16.52;100.00;99199.25;4843831;29;20065;-70
2022/01/04 07:22:04;;;;;;;53.78;34.17;;;;;;;16.74;100.00;99219.94;4836493;29;20370;-71
2022/01/04 07:24:53;;;;;;;55.22;32.40;;;;;;;16.77;100.00;99219.78;4847831;29;20801;-70
2022/01/04 07:27:41;;;;;;;57.25;32.55;;;;;;;16.63;100.00;99211.78;4843224;29;20520;-70
2022/01/04 07:30:23;;;;;;;53.72;31.33;;;;;;;16.46;100.00;99212.50;4845119;29;20106;-71
2022/01/04 07:33:12;;;;;;;60.28;32.20;;;;;;;16.71;100.00;99214.88;4842921;29;20523;-70
2022/01/04 07:36:01;;;;;;;57.25;33.55;;;;;;;16.61;99.92;99203.19;4843159;29;20054;-69
2022/01/04 07:38:43;;;;;;;64.93;33.55;;;;;;;16.59;98.72;99203.25;4844304;29;20056;-70
2022/01/04 07:41:33;;;;;;;52.75;31.17;;;;;;;16.72;95.97;99196.59;4848369;29;20049;-70
2022/01/04 07:44:15;;;;;;;52.33;32.03;;;;;;;16.76;99.23;99190.31;4846744;29;20365;-70
2022/01/04 07:47:04;;;;;;;59.80;34.65;;;;;;;16.87;99.86;99192.41;4839634;29;20053;-70
2022/01/04 07:49:46;;;;;;;61.08;32.55;;;;;;;17.01;99.26;99195.19;4843311;29;20121;-70
2022/01/04 07:52:35;;;;;;;55.58;31.30;;;;;;;16.97;96.78;99191.06;4841434;29;20145;-71
2022/01/04 07:55:19;;;;;;;53.05;34.45;;;;;;;16.65;96.84;99191.75;4832734;29;20311;-69
2022/01/04 07:58:08;;;;;;;65.47;33.05;;;;;;;16.74;97.88;99196.53;4845218;29;20096;-67
2022/01/04 08:00:51;;;;;;;56.38;33.85;;;;;;;16.83;97.17;99194.34;4839641;29;20872;-68
2022/01/04 08:03:40;;;;;;;47.72;29.30;;;;;;;16.63;95.71;99185.75;4842274;29;20114;-68
2022/01/04 08:06:22;;;;;;;54.65;32.17;;;;;;;16.74;95.79;99184.34;4822470;29;20066;-71
2022/01/04 08:09:12;;;;;;;52.50;31.73;;;;;;;16.59;96.43;99187.66;4833234;29;20046;-71
2022/01/04 08:11:55;;;;;;;63.78;33.50;;;;;;;16.51;97.43;99186.31;4839737;29;20137;-69
2022/01/04 08:14:44;;;;;;;49.80;29.65;;;;;;;16.83;98.33;99175.28;4844713;29;20510;-70
2022/01/04 08:17:26;;;;;;;41.75;26.85;;;;;;;16.80;95.02;99175.41;4838583;29;20042;-70
2022/01/04 08:20:17;;;;;;;46.25;26.55;;;;;;;16.76;91.54;99173.88;4838237;29;20546;-65
2022/01/04 08:23:00;;;;;;;43.53;25.90;;;;;;;16.71;93.19;99168.88;4842866;29;20622;-68
2022/01/04 08:25:49;;;;;;;47.78;25.92;;;;;;;16.89;93.77;99172.38;4835368;29;20508;-68
2022/01/04 08:28:31;;;;;;;43.53;25.67;;;;;;;17.01;92.24;99170.94;4835411;29;20141;-69
2022/01/04 08:31:20;;;;;;;49.15;26.58;;;;;;;17.04;90.83;99162.97;4827714;29;20057;-69
2022/01/04 08:34:09;;;;;;;48.92;28.17;;;;;;;16.95;91.56;99169.47;4825298;29;20061;-69
2022/01/04 08:36:58;;;;;;;46.13;28.95;;;;;;;16.75;92.45;99157.44;4842147;29;20050;-70
2022/01/04 08:39:46;;;;;;;50.45;27.48;;;;;;;16.76;92.52;99155.66;4829033;29;20045;-69
2022/01/04 08:42:35;;;;;;;48.00;26.52;;;;;;;16.98;93.99;99132.91;4827956;29;20076;-70
2022/01/04 08:45:30;;;;;;;48.90;27.90;;;;;;;17.12;94.91;99120.03;4842728;29;20050;-70
2022/01/04 08:48:20;;;;;;;39.75;23.30;;;;;;;17.08;89.16;99125.50;4838771;29;20049;-71
2022/01/04 08:51:02;;;;;;;;;;;;;;;17.04;84.42;99135.19;4824613;29;20046;-71
2022/01/04 08:53:58;;;;;;;39.88;20.83;;;;;;;17.00;84.25;99118.03;4839987;29;20351;-71
2022/01/04 08:56:34;;;;;;;34.25;22.15;;;;;;;17.33;89.08;99109.44;4842302;29;20042;-70
2022/01/04 08:59:23;;;;;;;40.08;23.05;;;;;;;17.19;89.38;99105.78;4824689;29;20109;-71
2022/01/04 09:02:06;;;;;;;44.73;26.00;;;;;;;17.24;89.92;99091.72;4835898;29;20562;-69
2022/01/04 09:05:01;;;;;;;47.30;26.33;;;;;;;16.92;87.76;99086.31;4863347;29;20041;-74
2022/01/04 09:07:37;;;;;;;51.30;27.98;;;;;;;16.94;88.82;99063.66;4844450;29;20087;-69
2022/01/04 09:10:26;;;;;;;51.97;29.00;;;;;;;17.20;88.86;99042.38;4846216;29;20431;-71
2022/01/04 09:13:19;;;;;;;49.55;28.02;;;;;;;17.40;85.80;99030.13;4853530;29;20057;-72
2022/01/04 09:18:55;;;;;;;45.10;28.70;;;;;;;17.47;86.92;99000.22;4841871;29;20125;-72
2022/01/04 09:21:52;;;;;;;50.67;31.02;;;;;;;17.35;88.93;98987.81;4845882;29;20057;-73
2022/01/04 09:24:28;;;;;;;48.60;30.27;;;;;;;17.20;88.27;98969.47;4846215;29;20125;-73
2022/01/04 09:27:17;;;;;;;45.28;27.05;;;;;;;17.24;87.01;98958.91;4847717;29;20053;-72
2022/01/04 09:30:03;;;;;;;40.90;23.48;;;;;;;17.32;84.60;98957.56;4845536;29;20318;-73
2022/01/04 09:32:53;;;;;;;38.58;22.83;;;;;;;17.29;84.91;98955.13;4846630;29;20109;-74
2022/01/04 09:35:44;;;;;;;29.92;19.27;;;;;;;17.16;79.66;98986.16;4839919;29;20065;-73
2022/01/04 09:38:33;;;;;;;31.38;18.98;;;;;;;17.23;82.16;98989.31;4839696;29;20049;-73
2022/01/04 09:41:17;;;;;;;36.33;22.40;;;;;;;17.28;80.95;99008.13;4843532;29;20053;-72
2022/01/04 09:44:07;;;;;;;32.08;20.75;;;;;;;17.29;79.36;99009.81;4850789;29;20674;-73
2022/01/04 09:46:58;;;;;;;35.17;20.58;;;;;;;17.46;80.42;98995.91;4849432;29;20125;-72
2022/01/04 09:49:47;;;;;;;38.90;21.27;;;;;;;17.41;79.17;99013.53;4843964;29;20058;-72
2022/01/04 09:52:30;;;;;;;33.93;21.57;;;;;;;17.41;84.56;99023.94;4844455;29;20133;-73
2022/01/04 09:55:19;;;;;;;33.75;20.20;;;;;;;17.36;82.51;99039.00;4841373;29;20045;-68
2022/01/04 09:58:08;;;;;;;28.02;16.75;;;;;;;17.29;79.88;99055.84;4838255;29;20161;-73
2022/01/04 10:00:51;;;;;;;29.33;17.38;;;;;;;17.26;81.90;99066.41;4847859;29;20058;-72
2022/01/04 10:03:41;;;;;;;27.42;17.70;;;;;;;17.27;84.05;99073.31;4850936;29;20057;-70
2022/01/04 10:06:30;;;;;;;29.30;16.85;;;;;;;17.25;84.01;99062.13;4844098;29;20109;-69
2022/01/04 10:09:14;;;;;;;29.70;16.90;;;;;;;17.28;84.69;99057.63;4846573;29;20057;-68
2022/01/04 10:12:11;;;;;;;35.05;19.25;;;;;;;17.38;87.52;99052.78;4842655;29;20058;-69
2022/01/04 10:14:52;;;;;;;32.03;18.90;;;;;;;17.23;87.15;99053.56;4846934;29;20046;-71
2022/01/04 10:17:49;;;;;;;28.02;16.52;;;;;;;17.27;86.65;99052.47;4844418;29;20046;-71
2022/01/04 10:20:31;;;;;;;25.63;16.92;;;;;;;17.13;86.95;99059.25;4842703;29;20049;-71
2022/01/04 10:23:25;;;;;;;28.50;18.13;;;;;;;17.24;88.33;99079.50;4550119;29;10000894;-72
2022/01/04 10:26:23;;;;;;;32.08;16.75;;;;;;;17.28;86.59;99088.03;4839547;29;20259;-72
2022/01/04 10:28:58;;;;;;;29.65;17.10;;;;;;;17.29;85.74;99100.13;4840154;29;20108;-70
2022/01/04 10:31:47;;;;;;;30.25;18.95;;;;;;;17.17;88.27;99102.41;4842366;29;20054;-69
2022/01/04 10:34:29;;;;;;;34.40;18.27;;;;;;;16.97;88.93;99081.75;4842780;29;20646;-67
2022/01/04 10:37:39;;;;;;;35.33;19.33;;;;;;;16.72;89.10;99079.50;4844711;29;20061;-70
2022/01/04 10:40:25;;;;;;;30.42;19.20;;;;;;;16.66;89.75;99077.22;4846075;29;20045;-68
2022/01/04 10:43:18;;;;;;;34.03;18.90;;;;;;;16.82;92.70;99052.13;4843883;29;20761;-68
2022/01/04 10:46:02;;;;;;;29.92;19.02;;;;;;;16.81;93.21;99045.22;4856157;29;20045;-69
2022/01/04 10:48:51;;;;;;;34.10;20.77;;;;;;;16.84;95.48;99071.09;4859754;29;20053;-69
2022/01/04 10:51:40;;;;;;;41.08;22.98;;;;;;;16.80;95.61;99068.72;4844343;29;20517;-69
2022/01/04 10:54:29;;;;;;;36.70;22.75;;;;;;;16.82;96.57;99062.53;4844309;29;20121;-69
2022/01/04 10:57:19;;;;;;;34.20;22.50;;;;;;;16.86;95.94;99058.00;4839478;29;20057;-70
2022/01/04 11:00:25;;;;;;;37.85;22.05;;;;;;;16.73;95.70;99047.38;4472863;29;10000780;-68
2022/01/04 11:03:02;;;;;;;31.35;20.98;;;;;;;16.78;95.79;99028.91;4845671;29;20049;-69
2022/01/04 11:06:11;;;;;;;36.95;22.73;;;;;;;16.80;95.45;99001.91;4836414;29;20046;-69
2022/01/04 11:08:46;;;;;;;34.53;19.63;;;;;;;16.78;94.65;98985.53;4838029;29;20061;-69
2022/01/04 11:11:44;;;;;;;39.40;19.97;;;;;;;16.87;94.75;98959.97;4840159;29;20070;-70
2022/01/04 11:14:19;;;;;;;29.48;18.30;;;;;;;16.81;94.10;98976.72;4838769;29;20362;-69
2022/01/04 11:17:09;;;;;;;34.93;18.33;;;;;;;16.66;91.64;98960.16;4847004;29;20125;-70
2022/01/04 11:20:04;;;;;;;32.40;15.18;;;;;;;16.49;90.38;98961.88;4850278;29;20093;-69
2022/01/04 11:22:57;;;;;;;29.52;15.40;;;;;;;16.29;89.99;98955.03;4847194;29;20156;-68
2022/01/04 11:25:50;;;;;;;28.08;15.23;;;;;;;16.32;93.28;98942.72;4843466;29;20049;-70
2022/01/04 11:28:49;;;;;;;35.13;15.87;;;;;;;16.29;92.80;98937.66;4828808;29;20053;-70
2022/01/04 11:31:47;;;;;;;30.23;15.88;;;;;;;16.27;94.07;98970.72;4846000;29;20168;-70
2022/01/04 11:35:06;;;;;;;34.08;15.65;;;;;;;16.35;96.43;98980.75;4840020;29;20566;-70
2022/01/04 11:38:00;;;;;;;32.22;15.73;;;;;;;16.23;96.62;98970.94;4843187;29;20054;-70
2022/01/04 11:40:49;;;;;;;29.35;14.95;;;;;;;16.20;100.00;98979.75;4844561;29;20061;-70
2022/01/04 11:43:41;;;;;;;26.15;13.50;;;;;;;15.93;96.81;98987.06;4845197;29;20065;-68
2022/01/04 11:46:33;;;;;;;28.60;14.52;;;;;;;15.93;96.58;98999.22;4841388;29;20053;-69
2022/01/04 11:49:23;;;;;;;25.45;13.48;;;;;;;15.85;96.65;99007.38;4839022;29;20132;-69
2022/01/04 11:52:09;;;;;;;27.25;14.38;;;;;;;15.93;99.29;99020.84;4839275;29;20053;-69
2022/01/04 11:55:24;;;;;;;29.52;14.68;;;;;;;15.89;100.00;99028.84;4845772;29;20486;-69
2022/01/04 11:58:13;;;;;;;27.38;13.77;;;;;;;16.00;100.00;99037.84;4846237;29;20053;-69
2022/01/04 12:01:06;;;;;;;24.38;13.60;;;;;;;15.88;100.00;99045.38;4838070;29;20061;-70
2022/01/04 12:03:51;;;;;;;27.05;13.15;;;;;;;15.82;100.00;99051.66;4839811;29;20053;-69
2022/01/04 12:06:43;;;;;;;26.48;13.85;;;;;;;15.69;100.00;99061.78;4844772;29;20137;-69
2022/01/04 12:09:26;;;;;;;23.70;13.27;;;;;;;15.82;100.00;99053.41;4844673;29;20080;-69
2022/01/04 12:12:15;;;;;;;27.48;13.20;;;;;;;15.73;100.00;99051.22;4846245;29;20060;-69
2022/01/04 12:15:35;;;;;;;27.60;13.32;;;;;;;15.78;100.00;99044.94;4839433;29;20145;-70
2022/01/04 12:18:39;;;;;;;28.95;13.50;;;;;;;15.81;100.00;99044.78;4836899;29;20054;-69
2022/01/04 12:21:31;;;;;;;31.98;14.32;;;;;;;15.77;100.00;99071.81;4844202;29;20053;-69
2022/01/04 12:24:15;;;;;;;26.60;13.82;;;;;;;15.67;100.00;99097.34;4845056;29;20041;-69
2022/01/04 12:27:12;;;;;;;29.67;14.27;;;;;;;15.67;100.00;99112.09;4842416;29;20110;-71
2022/01/04 12:30:30;;;;;;;26.45;14.60;;;;;;;15.63;100.00;99119.19;4844218;29;20072;-68
2022/01/04 12:33:51;;;;;;;35.08;14.98;;;;;;;15.74;100.00;99118.72;4839562;29;20169;-69
2022/01/04 12:36:49;;;;;;;31.25;15.52;;;;;;;15.82;100.00;99110.56;4837597;29;20352;-73
2022/01/04 12:39:40;;;;;;;32.83;15.82;;;;;;;15.67;100.00;99101.72;4840386;29;20674;-72
2022/01/04 12:42:23;;;;;;;47.00;21.15;;;;;;;15.62;100.00;99108.88;4846920;29;20087;-72
2022/01/04 12:45:20;;;;;;;40.33;19.67;;;;;;;15.79;100.00;99119.38;4846514;29;20045;-71
2022/01/04 12:47:55;;;;;;;40.47;20.60;;;;;;;15.68;100.00;99111.19;4845096;29;20486;-72
2022/01/04 12:50:44;;;;;;;46.38;23.60;;;;;;;15.54;100.00;99122.19;4848322;29;20723;-69
2022/01/04 12:53:42;;;;;;;44.92;25.40;;;;;;;15.52;100.00;99117.94;4844425;29;20053;-72
2022/01/04 12:56:39;;;;;;;47.75;25.15;;;;;;;15.40;100.00;99127.09;4843352;29;20557;-70
2022/01/04 12:59:45;;;;;;;43.58;24.95;;;;;;;15.18;100.00;99114.16;4845694;29;20045;-70